sensor_id;sensor_type;location;lat;lon;timestamp;pressure;altitude;pressure_sealevel;temperature;humidity
13080;BME280;6606;49.154;9.280;2023-05-19T00:02:28;100218.56;;;9.96;100.00
13080;BME280;6606;49.154;9.280;2023-05-19T00:05:13;100216.78;;;9.97;100.00
13080;BME280;6606;49.154;9.280;2023-05-19T00:07:58;100212.97;;;9.82;100.00
13080;BME280;6606;49.154;9.280;2023-05-19T00:10:41;100214.00;;;9.78;100.00
13080;BME280;6606;49.154;9.280;2023-05-19T00:13:23;100218.75;;;9.68;100.00
13080;BME280;6606;49.154;9.280;2023-05-19T00:16:07;100216.59;;;9.79;100.00
13080;BME280;6606;49.154;9.280;2023-05-19T00:18:49;100216.75;;;9.75;100.00
13080;BME280;6606;49.154;9.280;2023-05-19T00:21:31;100214.22;;;9.72;100.00
13080;BME280;6606;49.154;9.280;2023-05-19T00:24:12;100218.19;;;9.83;100.00
13080;BME280;6606;49.154;9.280;2023-05-19T00:26:54;100213.25;;;9.74;100.00
13080;BME280;6606;49.154;9.280;2023-05-19T00:29:36;100216.63;;;9.78;100.00
13080;BME280;6606;49.154;9.280;2023-05-19T00:32:19;100212.69;;;9.66;100.00
13080;BME280;6606;49.154;9.280;2023-05-19T00:35:00;100209.22;;;9.64;100.00
13080;BME280;6606;49.154;9.280;2023-05-19T00:37:42;100207.31;;;9.67;100.00
13080;BME280;6606;49.154;9.280;2023-05-19T00:40:24;100202.75;;;9.71;100.00
13080;BME280;6606;49.154;9.280;2023-05-19T00:43:07;100201.00;;;9.72;100.00
13080;BME280;6606;49.154;9.280;2023-05-19T00:45:49;100200.44;;;9.63;100.00
13080;BME280;6606;49.154;9.280;2023-05-19T00:48:34;100199.03;;;9.53;100.00
13080;BME280;6606;49.154;9.280;2023-05-19T00:51:16;100197.09;;;9.58;100.00
13080;BME280;6606;49.154;9.280;2023-05-19T00:53:58;100198.69;;;9.62;100.00
13080;BME280;6606;49.154;9.280;2023-05-19T00:56:40;100200.03;;;9.51;100.00
13080;BME280;6606;49.154;9.280;2023-05-19T00:59:22;100193.25;;;9.42;100.00
13080;BME280;6606;49.154;9.280;2023-05-19T01:02:04;100190.53;;;9.45;100.00
13080;BME280;6606;49.154;9.280;2023-05-19T01:04:49;100196.41;;;9.53;100.00
13080;BME280;6606;49.154;9.280;2023-05-19T01:07:31;100198.94;;;9.56;100.00
13080;BME280;6606;49.154;9.280;2023-05-19T01:10:13;100186.84;;;9.49;100.00
13080;BME280;6606;49.154;9.280;2023-05-19T01:12:54;100195.59;;;9.51;100.00
13080;BME280;6606;49.154;9.280;2023-05-19T01:15:44;100198.19;;;9.53;100.00
13080;BME280;6606;49.154;9.280;2023-05-19T01:18:45;100197.41;;;9.25;100.00
13080;BME280;6606;49.154;9.280;2023-05-19T01:21:55;100194.88;;;9.22;100.00
13080;BME280;6606;49.154;9.280;2023-05-19T01:25:25;100187.06;;;9.19;100.00
13080;BME280;6606;49.154;9.280;2023-05-19T01:31:40;100199.59;;;9.38;100.00
13080;BME280;6606;49.154;9.280;2023-05-19T01:34:23;100204.78;;;9.41;100.00
13080;BME280;6606;49.154;9.280;2023-05-19T01:37:07;100204.09;;;9.36;100.00
13080;BME280;6606;49.154;9.280;2023-05-19T01:39:50;100201.19;;;9.42;100.00
13080;BME280;6606;49.154;9.280;2023-05-19T01:42:32;100197.28;;;9.52;100.00
13080;BME280;6606;49.154;9.280;2023-05-19T01:45:19;100196.69;;;9.45;100.00
13080;BME280;6606;49.154;9.280;2023-05-19T01:48:03;100194.06;;;9.44;100.00
13080;BME280;6606;49.154;9.280;2023-05-19T01:50:45;100193.38;;;9.39;100.00
13080;BME280;6606;49.154;9.280;2023-05-19T01:53:29;100192.19;;;9.48;100.00
13080;BME280;6606;49.154;9.280;2023-05-19T01:56:14;100197.09;;;9.58;100.00
13080;BME280;6606;49.154;9.280;2023-05-19T01:59:14;100198.47;;;9.68;100.00
13080;BME280;6606;49.154;9.280;2023-05-19T02:02:06;100191.88;;;9.79;100.00
13080;BME280;6606;49.154;9.280;2023-05-19T02:04:57;100190.03;;;9.81;100.00
13080;BME280;6606;49.154;9.280;2023-05-19T02:07:43;100190.72;;;9.86;100.00
13080;BME280;6606;49.154;9.280;2023-05-19T02:10:29;100195.78;;;9.92;100.00
13080;BME280;6606;49.154;9.280;2023-05-19T02:13:12;100189.63;;;9.91;100.00
13080;BME280;6606;49.154;9.280;2023-05-19T02:15:59;100189.75;;;9.88;100.00
13080;BME280;6606;49.154;9.280;2023-05-19T02:18:44;100191.97;;;9.99;100.00
13080;BME280;6606;49.154;9.280;2023-05-19T02:21:28;100198.63;;;10.09;100.00
13080;BME280;6606;49.154;9.280;2023-05-19T02:24:10;100198.38;;;10.16;100.00
13080;BME280;6606;49.154;9.280;2023-05-19T02:26:54;100200.13;;;10.17;100.00
13080;BME280;6606;49.154;9.280;2023-05-19T02:29:36;100194.75;;;10.18;100.00
13080;BME280;6606;49.154;9.280;2023-05-19T02:32:19;100203.78;;;10.12;100.00
13080;BME280;6606;49.154;9.280;2023-05-19T02:35:01;100194.94;;;10.13;100.00
13080;BME280;6606;49.154;9.280;2023-05-19T02:37:44;100190.13;;;10.23;100.00
13080;BME280;6606;49.154;9.280;2023-05-19T02:40:26;100198.06;;;10.23;100.00
13080;BME280;6606;49.154;9.280;2023-05-19T02:43:08;100200.66;;;10.25;100.00
13080;BME280;6606;49.154;9.280;2023-05-19T02:45:50;100188.19;;;10.28;100.00
13080;BME280;6606;49.154;9.280;2023-05-19T02:48:33;100196.19;;;10.27;100.00
13080;BME280;6606;49.154;9.280;2023-05-19T02:51:17;100191.50;;;10.33;100.00
13080;BME280;6606;49.154;9.280;2023-05-19T02:54:00;100195.53;;;10.20;100.00
13080;BME280;6606;49.154;9.280;2023-05-19T02:56:41;100191.50;;;10.11;100.00
13080;BME280;6606;49.154;9.280;2023-05-19T02:59:23;100191.63;;;10.08;100.00
13080;BME280;6606;49.154;9.280;2023-05-19T03:02:05;100187.19;;;10.09;100.00
13080;BME280;6606;49.154;9.280;2023-05-19T03:04:47;100191.06;;;10.00;100.00
13080;BME280;6606;49.154;9.280;2023-05-19T03:07:29;100187.13;;;9.87;100.00
13080;BME280;6606;49.154;9.280;2023-05-19T03:10:12;100190.72;;;9.86;100.00
13080;BME280;6606;49.154;9.280;2023-05-19T03:12:54;100192.69;;;9.81;100.00
13080;BME280;6606;49.154;9.280;2023-05-19T03:15:35;100188.94;;;9.86;100.00
13080;BME280;6606;49.154;9.280;2023-05-19T03:18:17;100189.47;;;9.73;100.00
13080;BME280;6606;49.154;9.280;2023-05-19T03:20:59;100193.50;;;9.59;100.00
13080;BME280;6606;49.154;9.280;2023-05-19T03:23:41;100189.03;;;9.61;100.00
13080;BME280;6606;49.154;9.280;2023-05-19T03:26:25;100187.69;;;9.50;100.00
13080;BME280;6606;49.154;9.280;2023-05-19T03:29:09;100195.69;;;9.48;100.00
13080;BME280;6606;49.154;9.280;2023-05-19T03:31:52;100189.31;;;9.54;100.00
13080;BME280;6606;49.154;9.280;2023-05-19T03:34:33;100194.78;;;9.49;100.00
13080;BME280;6606;49.154;9.280;2023-05-19T03:37:15;100184.16;;;9.51;100.00
13080;BME280;6606;49.154;9.280;2023-05-19T03:39:57;100189.97;;;9.37;100.00
13080;BME280;6606;49.154;9.280;2023-05-19T03:42:40;100189.59;;;9.46;100.00
13080;BME280;6606;49.154;9.280;2023-05-19T03:45:22;100193.88;;;9.50;100.00
13080;BME280;6606;49.154;9.280;2023-05-19T03:48:05;100194.84;;;9.48;100.00
13080;BME280;6606;49.154;9.280;2023-05-19T03:51:10;100199.59;;;9.38;100.00
13080;BME280;6606;49.154;9.280;2023-05-19T03:53:53;100197.41;;;9.49;100.00
13080;BME280;6606;49.154;9.280;2023-05-19T03:56:40;100198.50;;;9.43;100.00
13080;BME280;6606;49.154;9.280;2023-05-19T03:59:24;100203.63;;;9.48;100.00
13080;BME280;6606;49.154;9.280;2023-05-19T04:02:06;100197.22;;;9.55;100.00
13080;BME280;6606;49.154;9.280;2023-05-19T04:04:47;100202.38;;;9.58;100.00
13080;BME280;6606;49.154;9.280;2023-05-19T04:07:29;100200.88;;;9.51;100.00
13080;BME280;6606;49.154;9.280;2023-05-19T04:10:11;100203.41;;;9.54;100.00
13080;BME280;6606;49.154;9.280;2023-05-19T04:12:53;100202.53;;;9.54;100.00
13080;BME280;6606;49.154;9.280;2023-05-19T04:15:36;100204.78;;;9.64;100.00
13080;BME280;6606;49.154;9.280;2023-05-19T04:18:18;100210.94;;;9.65;100.00
13080;BME280;6606;49.154;9.280;2023-05-19T04:21:00;100216.19;;;9.66;100.00
13080;BME280;6606;49.154;9.280;2023-05-19T04:23:42;100213.41;;;9.69;100.00
13080;BME280;6606;49.154;9.280;2023-05-19T04:26:23;100210.53;;;9.76;100.00
13080;BME280;6606;49.154;9.280;2023-05-19T04:29:06;100212.75;;;9.86;100.00
13080;BME280;6606;49.154;9.280;2023-05-19T04:31:49;100216.63;;;10.01;100.00
13080;BME280;6606;49.154;9.280;2023-05-19T04:34:32;100210.59;;;10.20;100.00
13080;BME280;6606;49.154;9.280;2023-05-19T04:37:14;100219.94;;;10.30;100.00
13080;BME280;6606;49.154;9.280;2023-05-19T04:39:56;100220.41;;;10.40;100.00
13080;BME280;6606;49.154;9.280;2023-05-19T04:42:40;100219.50;;;10.41;100.00
13080;BME280;6606;49.154;9.280;2023-05-19T04:45:23;100215.03;;;10.41;100.00
13080;BME280;6606;49.154;9.280;2023-05-19T04:48:09;100216.13;;;10.57;100.00
13080;BME280;6606;49.154;9.280;2023-05-19T04:50:52;100210.56;;;10.64;100.00
13080;BME280;6606;49.154;9.280;2023-05-19T04:53:33;100219.47;;;10.63;100.00
13080;BME280;6606;49.154;9.280;2023-05-19T04:56:16;100209.91;;;10.79;100.00
13080;BME280;6606;49.154;9.280;2023-05-19T04:58:59;100216.25;;;10.97;100.00
13080;BME280;6606;49.154;9.280;2023-05-19T05:01:41;100210.69;;;11.42;100.00
13080;BME280;6606;49.154;9.280;2023-05-19T05:04:27;100203.31;;;11.88;100.00
13080;BME280;6606;49.154;9.280;2023-05-19T05:07:09;100209.78;;;11.62;100.00
13080;BME280;6606;49.154;9.280;2023-05-19T05:09:52;100213.13;;;11.86;100.00
13080;BME280;6606;49.154;9.280;2023-05-19T05:12:34;100216.59;;;12.25;100.00
13080;BME280;6606;49.154;9.280;2023-05-19T05:15:17;100215.09;;;12.19;100.00
13080;BME280;6606;49.154;9.280;2023-05-19T05:18:02;100210.00;;;12.34;100.00
13080;BME280;6606;49.154;9.280;2023-05-19T05:20:47;100207.34;;;12.51;100.00
13080;BME280;6606;49.154;9.280;2023-05-19T05:23:30;100204.16;;;12.44;100.00
13080;BME280;6606;49.154;9.280;2023-05-19T05:26:17;100203.69;;;12.36;100.00
13080;BME280;6606;49.154;9.280;2023-05-19T05:29:02;100206.97;;;12.41;100.00
13080;BME280;6606;49.154;9.280;2023-05-19T05:31:44;100200.47;;;12.47;100.00
13080;BME280;6606;49.154;9.280;2023-05-19T05:34:26;100202.88;;;12.51;100.00
13080;BME280;6606;49.154;9.280;2023-05-19T05:37:10;100206.75;;;12.63;100.00
13080;BME280;6606;49.154;9.280;2023-05-19T05:39:52;100206.28;;;12.72;100.00
13080;BME280;6606;49.154;9.280;2023-05-19T05:42:34;100204.56;;;12.71;100.00
13080;BME280;6606;49.154;9.280;2023-05-19T05:45:16;100200.25;;;12.69;100.00
13080;BME280;6606;49.154;9.280;2023-05-19T05:47:59;100202.78;;;12.36;100.00
13080;BME280;6606;49.154;9.280;2023-05-19T05:50:41;100193.06;;;12.71;100.00
13080;BME280;6606;49.154;9.280;2023-05-19T05:53:28;100189.13;;;13.13;100.00
13080;BME280;6606;49.154;9.280;2023-05-19T05:56:13;100187.63;;;13.25;100.00
13080;BME280;6606;49.154;9.280;2023-05-19T05:59:03;100194.88;;;12.70;100.00
13080;BME280;6606;49.154;9.280;2023-05-19T06:01:45;100198.13;;;13.28;100.00
13080;BME280;6606;49.154;9.280;2023-05-19T06:04:29;100186.03;;;13.55;100.00
13080;BME280;6606;49.154;9.280;2023-05-19T06:07:11;100198.50;;;13.37;100.00
13080;BME280;6606;49.154;9.280;2023-05-19T06:09:54;100187.09;;;13.84;100.00
13080;BME280;6606;49.154;9.280;2023-05-19T06:12:38;100180.38;;;13.93;100.00
13080;BME280;6606;49.154;9.280;2023-05-19T06:15:22;100188.78;;;14.01;100.00
13080;BME280;6606;49.154;9.280;2023-05-19T06:18:14;100187.06;;;14.16;100.00
13080;BME280;6606;49.154;9.280;2023-05-19T06:20:56;100180.59;;;14.36;100.00
13080;BME280;6606;49.154;9.280;2023-05-19T06:23:38;100179.38;;;13.62;100.00
13080;BME280;6606;49.154;9.280;2023-05-19T06:26:23;100179.41;;;14.26;100.00
13080;BME280;6606;49.154;9.280;2023-05-19T06:29:04;100181.88;;;14.61;100.00
13080;BME280;6606;49.154;9.280;2023-05-19T06:31:46;100185.84;;;14.38;100.00
13080;BME280;6606;49.154;9.280;2023-05-19T06:34:30;100184.31;;;14.18;100.00
13080;BME280;6606;49.154;9.280;2023-05-19T06:37:12;100186.19;;;14.47;100.00
13080;BME280;6606;49.154;9.280;2023-05-19T06:39:59;100185.31;;;14.31;100.00
13080;BME280;6606;49.154;9.280;2023-05-19T06:42:42;100190.63;;;14.63;100.00
13080;BME280;6606;49.154;9.280;2023-05-19T06:45:30;100187.03;;;14.48;100.00
13080;BME280;6606;49.154;9.280;2023-05-19T06:48:14;100188.78;;;14.79;100.00
13080;BME280;6606;49.154;9.280;2023-05-19T06:50:56;100185.75;;;14.85;100.00
13080;BME280;6606;49.154;9.280;2023-05-19T06:53:38;100190.72;;;14.91;100.00
13080;BME280;6606;49.154;9.280;2023-05-19T06:56:23;100186.59;;;15.59;100.00
13080;BME280;6606;49.154;9.280;2023-05-19T06:59:06;100182.53;;;16.09;100.00
13080;BME280;6606;49.154;9.280;2023-05-19T07:01:50;100184.00;;;16.27;100.00
13080;BME280;6606;49.154;9.280;2023-05-19T07:04:32;100179.91;;;15.80;100.00
13080;BME280;6606;49.154;9.280;2023-05-19T07:07:14;100178.75;;;15.85;99.39
13080;BME280;6606;49.154;9.280;2023-05-19T07:09:57;100179.09;;;16.34;100.00
13080;BME280;6606;49.154;9.280;2023-05-19T07:12:40;100176.47;;;15.78;95.20
13080;BME280;6606;49.154;9.280;2023-05-19T07:15:24;100173.38;;;15.99;95.17
13080;BME280;6606;49.154;9.280;2023-05-19T07:18:05;100171.75;;;16.78;92.21
13080;BME280;6606;49.154;9.280;2023-05-19T07:20:50;100171.25;;;17.24;89.16
13080;BME280;6606;49.154;9.280;2023-05-19T07:23:32;100167.94;;;17.07;89.15
13080;BME280;6606;49.154;9.280;2023-05-19T07:26:14;100171.03;;;17.27;82.68
13080;BME280;6606;49.154;9.280;2023-05-19T07:28:56;100157.69;;;17.89;83.20
13080;BME280;6606;49.154;9.280;2023-05-19T07:31:39;100168.66;;;17.35;84.70
13080;BME280;6606;49.154;9.280;2023-05-19T07:34:21;100159.78;;;17.34;81.20
13080;BME280;6606;49.154;9.280;2023-05-19T07:37:03;100153.50;;;18.33;79.88
13080;BME280;6606;49.154;9.280;2023-05-19T07:39:45;100151.44;;;18.96;71.21
13080;BME280;6606;49.154;9.280;2023-05-19T07:42:26;100150.59;;;20.08;63.82
13080;BME280;6606;49.154;9.280;2023-05-19T07:45:09;100132.34;;;20.97;57.78
13080;BME280;6606;49.154;9.280;2023-05-19T07:47:53;100136.09;;;20.85;57.76
13080;BME280;6606;49.154;9.280;2023-05-19T07:50:34;100131.84;;;21.65;54.91
13080;BME280;6606;49.154;9.280;2023-05-19T07:53:16;100132.84;;;22.72;49.80
13080;BME280;6606;49.154;9.280;2023-05-19T07:55:58;100128.56;;;22.70;49.79
13080;BME280;6606;49.154;9.280;2023-05-19T07:58:40;100129.13;;;22.15;49.74
13080;BME280;6606;49.154;9.280;2023-05-19T08:01:21;100126.22;;;21.87;48.83
13080;BME280;6606;49.154;9.280;2023-05-19T08:04:05;100124.56;;;22.83;48.54
13080;BME280;6606;49.154;9.280;2023-05-19T08:06:46;100130.63;;;21.48;50.40
13080;BME280;6606;49.154;9.280;2023-05-19T08:09:28;100127.94;;;20.22;52.78
13080;BME280;6606;49.154;9.280;2023-05-19T08:12:10;100133.75;;;19.50;61.90
13080;BME280;6606;49.154;9.280;2023-05-19T08:14:52;100130.84;;;19.30;64.63
13080;BME280;6606;49.154;9.280;2023-05-19T08:17:33;100133.03;;;19.59;61.33
13080;BME280;6606;49.154;9.280;2023-05-19T08:20:16;100124.72;;;19.62;61.49
13080;BME280;6606;49.154;9.280;2023-05-19T08:22:58;100122.78;;;19.64;62.75
13080;BME280;6606;49.154;9.280;2023-05-19T08:25:40;100116.56;;;20.72;57.58
13080;BME280;6606;49.154;9.280;2023-05-19T08:28:22;100115.16;;;20.35;55.28
13080;BME280;6606;49.154;9.280;2023-05-19T08:31:03;100117.22;;;20.85;54.36
13080;BME280;6606;49.154;9.280;2023-05-19T08:33:45;100105.22;;;21.50;55.46
13080;BME280;6606;49.154;9.280;2023-05-19T08:36:28;100103.38;;;21.91;52.38
13080;BME280;6606;49.154;9.280;2023-05-19T08:39:10;100095.81;;;21.85;49.84
13080;BME280;6606;49.154;9.280;2023-05-19T08:41:53;100092.06;;;22.36;49.72
13080;BME280;6606;49.154;9.280;2023-05-19T08:44:35;100084.66;;;21.49;50.21
13080;BME280;6606;49.154;9.280;2023-05-19T08:47:19;100097.63;;;20.41;59.85
13080;BME280;6606;49.154;9.280;2023-05-19T08:50:06;100092.44;;;19.73;62.55
13080;BME280;6606;49.154;9.280;2023-05-19T08:52:54;100088.69;;;19.53;61.75
13080;BME280;6606;49.154;9.280;2023-05-19T08:55:45;100088.31;;;19.13;71.95
13080;BME280;6606;49.154;9.280;2023-05-19T08:58:33;100093.81;;;19.00;63.95
13080;BME280;6606;49.154;9.280;2023-05-19T09:01:15;100084.69;;;18.67;70.70
13080;BME280;6606;49.154;9.280;2023-05-19T09:03:57;100097.59;;;19.09;71.57
13080;BME280;6606;49.154;9.280;2023-05-19T09:06:39;100096.38;;;19.47;67.46
13080;BME280;6606;49.154;9.280;2023-05-19T09:09:23;100094.91;;;19.20;68.74
13080;BME280;6606;49.154;9.280;2023-05-19T09:12:05;100091.59;;;18.83;68.99
13080;BME280;6606;49.154;9.280;2023-05-19T09:14:47;100105.81;;;18.61;67.53
13080;BME280;6606;49.154;9.280;2023-05-19T09:17:29;100099.81;;;19.04;65.82
13080;BME280;6606;49.154;9.280;2023-05-19T09:20:11;100094.63;;;18.78;67.71
13080;BME280;6606;49.154;9.280;2023-05-19T09:22:53;100097.13;;;18.22;72.98
13080;BME280;6606;49.154;9.280;2023-05-19T09:25:39;100091.72;;;18.46;71.54
13080;BME280;6606;49.154;9.280;2023-05-19T09:28:27;100097.97;;;19.16;67.55
13080;BME280;6606;49.154;9.280;2023-05-19T09:31:12;100094.75;;;18.41;71.91
13080;BME280;6606;49.154;9.280;2023-05-19T09:33:54;100084.66;;;18.56;73.26
13080;BME280;6606;49.154;9.280;2023-05-19T09:36:38;100080.50;;;18.76;74.03
13080;BME280;6606;49.154;9.280;2023-05-19T09:39:21;100077.28;;;18.71;70.04
13080;BME280;6606;49.154;9.280;2023-05-19T09:42:06;100079.44;;;19.24;69.40
13080;BME280;6606;49.154;9.280;2023-05-19T09:44:47;100084.63;;;18.92;76.39
13080;BME280;6606;49.154;9.280;2023-05-19T09:47:32;100084.88;;;19.45;66.91
13080;BME280;6606;49.154;9.280;2023-05-19T09:50:15;100084.91;;;19.67;65.17
13080;BME280;6606;49.154;9.280;2023-05-19T09:52:57;100090.16;;;19.46;68.38
13080;BME280;6606;49.154;9.280;2023-05-19T09:55:39;100084.88;;;19.45;66.25
13080;BME280;6606;49.154;9.280;2023-05-19T09:58:23;100077.69;;;19.68;70.04
13080;BME280;6606;49.154;9.280;2023-05-19T10:01:05;100074.63;;;19.72;64.71
13080;BME280;6606;49.154;9.280;2023-05-19T10:03:51;100085.75;;;19.11;68.11
13080;BME280;6606;49.154;9.280;2023-05-19T10:06:34;100082.94;;;19.13;71.85
13080;BME280;6606;49.154;9.280;2023-05-19T10:09:16;100081.72;;;18.95;67.58
13080;BME280;6606;49.154;9.280;2023-05-19T10:11:58;100075.75;;;19.25;66.29
13080;BME280;6606;49.154;9.280;2023-05-19T10:14:42;100072.69;;;19.41;66.66
13080;BME280;6606;49.154;9.280;2023-05-19T10:17:24;100069.75;;;19.44;66.84
13080;BME280;6606;49.154;9.280;2023-05-19T10:20:10;100062.97;;;18.71;67.23
13080;BME280;6606;49.154;9.280;2023-05-19T10:22:54;100062.06;;;19.17;68.79
13080;BME280;6606;49.154;9.280;2023-05-19T10:25:37;100066.06;;;19.45;66.90
13080;BME280;6606;49.154;9.280;2023-05-19T10:28:22;100063.78;;;19.95;67.22
13080;BME280;6606;49.154;9.280;2023-05-19T10:31:12;100070.38;;;20.02;64.75
13080;BME280;6606;49.154;9.280;2023-05-19T10:34:08;100062.53;;;20.31;67.65
13080;BME280;6606;49.154;9.280;2023-05-19T10:37:01;100060.81;;;20.62;62.31
13080;BME280;6606;49.154;9.280;2023-05-19T10:39:50;100076.53;;;20.25;65.39
13080;BME280;6606;49.154;9.280;2023-05-19T10:42:37;100061.34;;;20.56;62.09
13080;BME280;6606;49.154;9.280;2023-05-19T10:45:22;100061.69;;;20.94;60.38
13080;BME280;6606;49.154;9.280;2023-05-19T10:48:13;100051.25;;;20.58;61.88
13080;BME280;6606;49.154;9.280;2023-05-19T10:50:55;100064.34;;;19.77;63.86
13080;BME280;6606;49.154;9.280;2023-05-19T10:53:40;100065.34;;;19.31;69.79
13080;BME280;6606;49.154;9.280;2023-05-19T10:56:29;100055.97;;;19.15;73.26
13080;BME280;6606;49.154;9.280;2023-05-19T10:59:30;100048.94;;;18.67;76.42
13080;BME280;6606;49.154;9.280;2023-05-19T11:02:36;100058.66;;;18.57;80.20
13080;BME280;6606;49.154;9.280;2023-05-19T11:05:27;100055.72;;;18.49;80.71
13080;BME280;6606;49.154;9.280;2023-05-19T11:08:10;100055.50;;;18.16;84.01
13080;BME280;6606;49.154;9.280;2023-05-19T11:10:52;100056.22;;;18.42;83.90
13080;BME280;6606;49.154;9.280;2023-05-19T11:13:33;100057.50;;;18.01;85.63
13080;BME280;6606;49.154;9.280;2023-05-19T11:16:17;100059.88;;;17.82;91.11
13080;BME280;6606;49.154;9.280;2023-05-19T11:19:00;100052.25;;;18.24;85.58
13080;BME280;6606;49.154;9.280;2023-05-19T11:21:47;100056.97;;;18.56;84.55
13080;BME280;6606;49.154;9.280;2023-05-19T11:24:34;100052.28;;;18.82;83.05
13080;BME280;6606;49.154;9.280;2023-05-19T11:27:20;100044.59;;;19.00;78.64
13080;BME280;6606;49.154;9.280;2023-05-19T11:30:08;100048.38;;;18.86;78.23
13080;BME280;6606;49.154;9.280;2023-05-19T11:32:54;100041.44;;;19.06;78.50
13080;BME280;6606;49.154;9.280;2023-05-19T11:35:36;100043.28;;;18.48;84.87
13080;BME280;6606;49.154;9.280;2023-05-19T11:38:20;100042.28;;;18.37;83.94
13080;BME280;6606;49.154;9.280;2023-05-19T11:41:03;100040.56;;;18.01;85.47
13080;BME280;6606;49.154;9.280;2023-05-19T11:43:46;100041.34;;;17.66;91.09
13080;BME280;6606;49.154;9.280;2023-05-19T11:46:27;100035.91;;;18.27;86.49
13080;BME280;6606;49.154;9.280;2023-05-19T11:49:09;100046.09;;;18.11;82.62
13080;BME280;6606;49.154;9.280;2023-05-19T11:51:52;100039.28;;;18.53;84.29
13080;BME280;6606;49.154;9.280;2023-05-19T11:54:36;100028.84;;;19.06;78.72
13080;BME280;6606;49.154;9.280;2023-05-19T11:57:18;100036.75;;;19.30;77.88
13080;BME280;6606;49.154;9.280;2023-05-19T12:00:01;100024.56;;;19.15;76.90
13080;BME280;6606;49.154;9.280;2023-05-19T12:02:45;100027.19;;;18.59;86.39
13080;BME280;6606;49.154;9.280;2023-05-19T12:05:27;100022.34;;;18.86;83.57
13080;BME280;6606;49.154;9.280;2023-05-19T12:08:10;100030.47;;;18.51;81.17
13080;BME280;6606;49.154;9.280;2023-05-19T12:10:53;100035.00;;;18.73;76.05
13080;BME280;6606;49.154;9.280;2023-05-19T12:13:35;100035.59;;;18.54;78.32
13080;BME280;6606;49.154;9.280;2023-05-19T12:16:18;100039.72;;;18.82;74.22
13080;BME280;6606;49.154;9.280;2023-05-19T12:19:04;100026.97;;;18.15;75.41
13080;BME280;6606;49.154;9.280;2023-05-19T12:21:46;100036.53;;;18.31;76.87
13080;BME280;6606;49.154;9.280;2023-05-19T12:24:28;100040.22;;;18.52;74.37
13080;BME280;6606;49.154;9.280;2023-05-19T12:27:16;100037.28;;;18.79;76.63
13080;BME280;6606;49.154;9.280;2023-05-19T12:29:58;100047.78;;;18.94;70.08
13080;BME280;6606;49.154;9.280;2023-05-19T12:32:41;100033.09;;;18.86;68.86
13080;BME280;6606;49.154;9.280;2023-05-19T12:35:28;100039.22;;;18.77;72.99
13080;BME280;6606;49.154;9.280;2023-05-19T12:38:13;100023.94;;;19.23;71.47
13080;BME280;6606;49.154;9.280;2023-05-19T12:40:57;100032.38;;;19.18;72.98
13080;BME280;6606;49.154;9.280;2023-05-19T12:43:40;100033.31;;;18.61;70.34
13080;BME280;6606;49.154;9.280;2023-05-19T12:46:22;100033.56;;;18.58;78.73
13080;BME280;6606;49.154;9.280;2023-05-19T12:49:04;100032.81;;;18.67;74.68
13080;BME280;6606;49.154;9.280;2023-05-19T12:51:50;100027.38;;;18.80;78.49
13080;BME280;6606;49.154;9.280;2023-05-19T12:54:32;100025.31;;;18.95;79.07
13080;BME280;6606;49.154;9.280;2023-05-19T12:57:15;100025.75;;;18.66;79.94
13080;BME280;6606;49.154;9.280;2023-05-19T13:00:02;100030.81;;;18.46;82.94
13080;BME280;6606;49.154;9.280;2023-05-19T13:02:57;100031.28;;;17.57;90.26
13080;BME280;6606;49.154;9.280;2023-05-19T13:05:40;100027.75;;;17.56;90.46
13080;BME280;6606;49.154;9.280;2023-05-19T13:08:23;100036.94;;;17.41;89.98
13080;BME280;6606;49.154;9.280;2023-05-19T13:11:04;100021.97;;;17.63;91.74
13080;BME280;6606;49.154;9.280;2023-05-19T13:13:46;100023.31;;;17.81;89.60
13080;BME280;6606;49.154;9.280;2023-05-19T13:16:29;100017.03;;;18.05;89.06
13080;BME280;6606;49.154;9.280;2023-05-19T13:19:12;100031.53;;;17.78;91.12
13080;BME280;6606;49.154;9.280;2023-05-19T13:21:54;100019.63;;;18.06;91.80
13080;BME280;6606;49.154;9.280;2023-05-19T13:24:36;100020.53;;;18.18;89.63
13080;BME280;6606;49.154;9.280;2023-05-19T13:27:18;100021.97;;;18.22;93.14
13080;BME280;6606;49.154;9.280;2023-05-19T13:30:00;100021.47;;;18.17;88.42
13080;BME280;6606;49.154;9.280;2023-05-19T13:32:43;100016.47;;;18.12;87.88
13080;BME280;6606;49.154;9.280;2023-05-19T13:35:25;100017.78;;;18.07;91.89
13080;BME280;6606;49.154;9.280;2023-05-19T13:38:08;100021.69;;;18.02;91.75
13080;BME280;6606;49.154;9.280;2023-05-19T13:40:50;100021.03;;;17.99;86.42
13080;BME280;6606;49.154;9.280;2023-05-19T13:43:32;100009.81;;;18.29;83.30
13080;BME280;6606;49.154;9.280;2023-05-19T13:46:14;100008.75;;;18.65;82.68
13080;BME280;6606;49.154;9.280;2023-05-19T13:48:57;100016.47;;;18.59;80.64
13080;BME280;6606;49.154;9.280;2023-05-19T13:51:41;100013.91;;;18.68;89.47
13080;BME280;6606;49.154;9.280;2023-05-19T13:54:28;100009.50;;;18.56;84.94
13080;BME280;6606;49.154;9.280;2023-05-19T13:57:09;100009.50;;;18.56;84.87
13080;BME280;6606;49.154;9.280;2023-05-19T13:59:52;100006.63;;;19.04;85.02
13080;BME280;6606;49.154;9.280;2023-05-19T14:02:34;100003.81;;;19.17;83.33
13080;BME280;6606;49.154;9.280;2023-05-19T14:05:18;99994.25;;;18.68;87.82
13080;BME280;6606;49.154;9.280;2023-05-19T14:08:00;99994.75;;;19.07;84.95
13080;BME280;6606;49.154;9.280;2023-05-19T14:10:44;99986.84;;;18.94;81.89
13080;BME280;6606;49.154;9.280;2023-05-19T14:13:26;99982.56;;;18.92;83.83
13080;BME280;6606;49.154;9.280;2023-05-19T14:16:08;99985.94;;;18.60;88.14
13080;BME280;6606;49.154;9.280;2023-05-19T14:18:50;99977.03;;;18.48;85.10
13080;BME280;6606;49.154;9.280;2023-05-19T14:21:33;99979.47;;;18.62;88.55
13080;BME280;6606;49.154;9.280;2023-05-19T14:24:15;99980.13;;;18.88;87.85
13080;BME280;6606;49.154;9.280;2023-05-19T14:26:57;99974.59;;;19.13;86.91
13080;BME280;6606;49.154;9.280;2023-05-19T14:29:40;99975.50;;;18.79;84.15